createdAt,value
2022-09-07T00:02:55.414Z,7.45
2022-09-07T00:07:57.020Z,9.02
2022-09-07T00:12:58.587Z,6.25
2022-09-07T00:18:00.146Z,5.85
2022-09-07T00:23:01.709Z,8.02
2022-09-07T00:28:03.273Z,4.53
2022-09-07T00:33:04.820Z,8.43
2022-09-07T00:38:06.405Z,7.63
2022-09-07T00:43:07.955Z,5.03
2022-09-07T00:48:09.509Z,8.20
2022-09-07T00:53:11.065Z,5.45
2022-09-07T00:58:12.637Z,5.97
2022-09-07T01:03:14.179Z,6.22
2022-09-07T01:08:15.744Z,5.20
2022-09-07T01:13:17.303Z,6.00
2022-09-07T01:18:18.854Z,4.60
2022-09-07T01:23:20.423Z,5.40
2022-09-07T01:28:21.977Z,4.55
2022-09-07T01:33:23.533Z,5.50
2022-09-07T01:38:25.163Z,6.10
2022-09-07T01:43:26.772Z,8.93
2022-09-07T01:48:28.357Z,5.15
2022-09-07T01:53:29.962Z,5.38
2022-09-07T01:58:31.698Z,7.93
2022-09-07T02:03:33.397Z,7.95
2022-09-07T02:08:34.954Z,7.38
2022-09-07T02:13:36.508Z,6.28
2022-09-07T02:18:38.280Z,8.85
2022-09-07T02:23:39.852Z,7.35
2022-09-07T02:28:41.409Z,6.40
2022-09-07T02:33:42.983Z,5.60
2022-09-07T02:38:44.551Z,6.18
2022-09-07T02:43:46.115Z,8.50
2022-09-07T02:48:47.665Z,5.68
2022-09-07T02:53:49.212Z,8.73
2022-09-07T02:58:50.768Z,8.85
2022-09-07T03:03:52.346Z,8.63
2022-09-07T03:08:53.963Z,7.60
2022-09-07T03:13:55.541Z,6.22
2022-09-07T03:18:57.136Z,7.88
2022-09-07T03:23:58.722Z,7.65
2022-09-07T03:29:00.296Z,5.18
2022-09-07T03:34:01.849Z,8.77
2022-09-07T03:39:03.424Z,10.27
2022-09-07T03:44:05.003Z,4.07
2022-09-07T03:49:06.609Z,6.22
2022-09-07T03:54:08.493Z,7.47
2022-09-07T03:59:10.058Z,7.20
2022-09-07T04:04:11.620Z,5.57
2022-09-07T04:09:13.168Z,8.52
2022-09-07T04:14:14.717Z,6.55
2022-09-07T04:19:16.275Z,7.55
2022-09-07T04:24:17.891Z,4.05
2022-09-07T04:29:19.497Z,6.43
2022-09-07T04:34:21.063Z,8.52
2022-09-07T04:39:22.626Z,7.70
2022-09-07T04:44:24.192Z,4.75
2022-09-07T04:49:25.751Z,8.20
2022-09-07T04:54:27.307Z,7.90
2022-09-07T04:59:28.868Z,6.32
2022-09-07T05:04:30.428Z,5.55
2022-09-07T05:09:31.988Z,7.80
2022-09-07T05:14:33.539Z,8.75
2022-09-07T05:19:35.094Z,8.93
2022-09-07T05:24:36.658Z,8.50
2022-09-07T05:35:01.903Z,4.57
2022-09-07T05:40:03.502Z,8.82
2022-09-07T05:45:05.132Z,7.82
2022-09-07T05:50:06.684Z,7.95
2022-09-07T05:55:28.717Z,7.03
2022-09-07T06:00:29.946Z,7.18
2022-09-07T06:05:31.497Z,6.40
2022-09-07T06:10:48.414Z,7.15
2022-09-07T06:15:50.232Z,6.55
2022-09-07T06:20:51.802Z,11.05
2022-09-07T06:25:53.356Z,7.75
2022-09-07T06:30:54.931Z,6.50
2022-09-07T06:35:56.496Z,5.88
2022-09-07T06:51:41.678Z,9.23
2022-09-07T06:56:43.236Z,5.78
2022-09-07T07:01:44.811Z,7.65
2022-09-07T07:06:46.376Z,8.50
2022-09-07T07:11:47.953Z,6.03
2022-09-07T07:16:49.609Z,6.88
2022-09-07T07:27:13.075Z,9.40
2022-09-07T07:32:14.628Z,11.90
2022-09-07T07:37:17.204Z,12.80
2022-09-07T07:42:18.742Z,6.68
2022-09-07T07:47:20.388Z,6.90
2022-09-07T07:57:43.642Z,11.10
2022-09-07T08:02:45.244Z,8.32
2022-09-07T08:07:46.825Z,11.75
2022-09-07T08:12:48.357Z,9.90
2022-09-07T08:17:49.889Z,10.55
2022-09-07T08:22:51.428Z,12.93
2022-09-07T08:27:52.955Z,10.10
2022-09-07T08:32:54.482Z,9.65
2022-09-07T08:37:56.029Z,7.65
2022-09-07T08:42:57.562Z,9.05
2022-09-07T08:47:59.100Z,10.15
2022-09-07T08:53:00.649Z,10.53
2022-09-07T08:58:02.155Z,12.35
2022-09-07T09:08:25.449Z,9.77
2022-09-07T09:13:26.992Z,7.38
2022-09-07T09:18:28.532Z,9.00
2022-09-07T09:23:30.072Z,11.35
2022-09-07T09:28:32.430Z,9.02
2022-09-07T09:33:34.190Z,11.60
2022-09-07T09:38:35.932Z,7.57
2022-09-07T09:43:37.472Z,8.73
2022-09-07T09:48:39.002Z,6.90
2022-09-07T09:53:40.536Z,8.10
2022-09-07T10:04:06.368Z,9.05
2022-09-07T10:09:11.228Z,7.25
2022-09-07T10:14:12.757Z,9.73
2022-09-07T10:19:14.280Z,29.00
2022-09-07T10:24:15.852Z,7.25
2022-09-07T10:29:17.440Z,8.05
2022-09-07T10:34:26.464Z,10.10
2022-09-07T10:39:28.367Z,9.27
2022-09-07T10:44:29.930Z,8.55
2022-09-07T10:49:31.574Z,8.68
2022-09-07T10:54:33.287Z,7.82
2022-09-07T11:04:56.862Z,7.18
2022-09-07T11:09:58.389Z,9.73
2022-09-07T11:14:59.919Z,7.93
2022-09-07T11:20:01.472Z,7.03
2022-09-07T11:30:24.764Z,13.63
2022-09-07T11:35:26.349Z,18.48
2022-09-07T11:40:27.888Z,8.07
2022-09-07T11:45:29.417Z,9.95
2022-09-07T11:50:30.958Z,10.80
2022-09-07T11:55:32.494Z,7.93
2022-09-07T12:00:34.030Z,7.13
2022-09-07T12:05:35.560Z,7.15
2022-09-07T12:10:37.083Z,6.90
2022-09-07T12:15:38.730Z,9.60
2022-09-07T12:20:40.282Z,9.30
2022-09-07T12:25:41.814Z,5.85
2022-09-07T12:30:43.391Z,8.38
2022-09-07T12:35:44.931Z,8.43
2022-09-07T12:40:46.510Z,8.80
2022-09-07T12:45:48.110Z,9.75
2022-09-07T12:50:51.043Z,9.05
2022-09-07T13:01:14.664Z,13.38
2022-09-07T13:06:16.633Z,9.77
2022-09-07T13:11:18.188Z,9.82
2022-09-07T13:16:19.745Z,7.45
2022-09-07T13:21:21.323Z,7.22
2022-09-07T13:26:22.849Z,9.68
2022-09-07T13:31:24.484Z,8.73
2022-09-07T13:36:26.047Z,10.55
2022-09-07T13:41:27.596Z,6.55
2022-09-07T13:46:29.186Z,8.20
2022-09-07T13:51:30.763Z,11.77
2022-09-07T13:56:32.328Z,6.93
2022-09-07T14:01:33.906Z,7.65
2022-09-07T14:06:35.498Z,9.05
2022-09-07T14:11:37.054Z,7.93
2022-09-07T14:16:38.631Z,7.80
2022-09-07T14:21:40.221Z,7.57
2022-09-07T14:26:41.811Z,7.05
2022-09-07T14:31:43.361Z,9.40
2022-09-07T14:36:46.276Z,16.38
2022-09-07T14:41:48.055Z,7.32
2022-09-07T14:46:54.616Z,11.00
2022-09-07T14:51:58.085Z,11.93
2022-09-07T14:56:59.625Z,8.38
2022-09-07T15:02:01.224Z,12.57
2022-09-07T15:07:03.298Z,8.60
2022-09-07T15:12:05.121Z,8.68
2022-09-07T15:22:28.365Z,9.82
2022-09-07T15:27:29.895Z,9.20
2022-09-07T15:32:31.485Z,9.95
2022-09-07T15:43:08.529Z,10.15
2022-09-07T15:48:16.310Z,7.45
2022-09-07T15:58:39.536Z,7.28
2022-09-07T16:03:41.141Z,11.02
2022-09-07T16:08:42.898Z,9.60
2022-09-07T16:13:46.934Z,14.23
2022-09-07T16:18:49.748Z,8.20
2022-09-07T16:23:51.331Z,8.77
2022-09-07T16:28:52.867Z,15.18
2022-09-07T16:33:54.393Z,9.13
2022-09-07T16:38:56.047Z,10.77
2022-09-07T16:43:57.739Z,13.30
2022-09-07T16:48:59.266Z,10.73
2022-09-07T16:54:00.967Z,8.48
2022-09-07T16:59:02.502Z,9.98
2022-09-07T17:04:09.626Z,13.80
2022-09-07T17:09:12.558Z,12.93
2022-09-07T17:14:14.105Z,17.75
2022-09-07T17:19:31.455Z,10.40
2022-09-07T17:24:33.509Z,9.32
2022-09-07T17:29:37.178Z,9.80
2022-09-07T17:34:38.916Z,11.05
2022-09-07T17:39:40.508Z,10.50
2022-09-07T17:44:42.178Z,10.10
2022-09-07T17:49:43.737Z,10.77
2022-09-07T17:54:45.339Z,14.10
2022-09-07T18:05:08.559Z,12.85
2022-09-07T18:10:10.144Z,10.02
2022-09-07T18:15:11.692Z,15.07
2022-09-07T18:20:13.221Z,10.20
2022-09-07T18:25:15.988Z,14.02
2022-09-07T18:30:17.550Z,13.38
2022-09-07T18:35:19.080Z,11.55
2022-09-07T18:40:21.594Z,13.23
2022-09-07T18:45:30.211Z,10.48
2022-09-07T18:50:31.892Z,13.15
2022-09-07T18:55:33.463Z,9.00
2022-09-07T19:00:35.078Z,15.88
2022-09-07T19:05:52.836Z,12.57
2022-09-07T19:10:54.834Z,13.98
2022-09-07T19:15:56.460Z,12.57
2022-09-07T19:20:58.080Z,10.02
2022-09-07T19:25:59.632Z,12.80
2022-09-07T19:31:01.192Z,11.55
2022-09-07T19:36:02.744Z,12.43
2022-09-07T19:41:04.300Z,12.27
2022-09-07T19:46:05.845Z,13.20
2022-09-07T19:51:07.396Z,12.50
2022-09-07T19:56:09.068Z,15.20
2022-09-07T20:01:10.704Z,13.77
2022-09-07T20:06:12.317Z,12.85
2022-09-07T20:11:13.886Z,9.60
2022-09-07T20:16:15.471Z,13.57
2022-09-07T20:21:17.050Z,12.38
2022-09-07T20:26:18.686Z,10.80
2022-09-07T20:31:20.312Z,15.00
2022-09-07T20:36:21.889Z,14.88
2022-09-07T20:41:23.430Z,13.88
2022-09-07T20:46:24.983Z,15.10
2022-09-07T20:51:26.586Z,12.73
2022-09-07T20:56:28.153Z,12.07
2022-09-07T21:01:29.699Z,13.55
2022-09-07T21:06:31.234Z,12.23
2022-09-07T21:11:32.815Z,12.05
2022-09-07T21:16:34.430Z,10.68
2022-09-07T21:21:38.716Z,11.38
2022-09-07T21:26:40.586Z,13.30
2022-09-07T21:31:42.187Z,15.32
2022-09-07T21:36:43.779Z,14.57
2022-09-07T21:41:45.321Z,13.43
2022-09-07T21:46:46.954Z,14.75
2022-09-07T21:51:48.503Z,13.43
2022-09-07T21:56:50.038Z,13.82
2022-09-07T22:01:51.583Z,13.73
2022-09-07T22:06:53.223Z,14.68
2022-09-07T22:11:54.757Z,16.30
2022-09-07T22:16:56.283Z,13.80
2022-09-07T22:21:57.810Z,13.60
2022-09-07T22:26:59.330Z,17.60
2022-09-07T22:32:00.851Z,15.13
2022-09-07T22:37:02.415Z,15.30
2022-09-07T22:42:03.930Z,13.38
2022-09-07T22:52:24.858Z,14.75
2022-09-07T22:57:26.396Z,16.45
2022-09-07T23:02:28.042Z,14.60
2022-09-07T23:07:29.609Z,16.67
2022-09-07T23:12:31.151Z,15.48
2022-09-07T23:17:32.710Z,18.17
2022-09-07T23:22:34.230Z,16.63
2022-09-07T23:27:35.767Z,17.60
2022-09-07T23:32:37.304Z,17.33
2022-09-07T23:37:38.842Z,18.90
2022-09-07T23:42:40.415Z,16.92
2022-09-07T23:47:41.951Z,17.48
2022-09-07T23:52:43.487Z,21.13
2022-09-07T23:57:45.020Z,17.33
